sensor_id;sensor_type;location;lat;lon;timestamp;P1;durP1;ratioP1;P2;durP2;ratioP2
22429;SDS011;11382;48.086;11.632;2023-04-25T00:00:44;3.53;;;1.95;;
22429;SDS011;11382;48.086;11.632;2023-04-25T00:03:12;2.70;;;1.95;;
22429;SDS011;11382;48.086;11.632;2023-04-25T00:05:40;2.28;;;1.80;;
22429;SDS011;11382;48.086;11.632;2023-04-25T00:08:09;3.72;;;2.40;;
22429;SDS011;11382;48.086;11.632;2023-04-25T00:10:37;2.72;;;1.88;;
22429;SDS011;11382;48.086;11.632;2023-04-25T00:13:05;2.58;;;1.70;;
22429;SDS011;11382;48.086;11.632;2023-04-25T00:15:34;2.28;;;1.75;;
22429;SDS011;11382;48.086;11.632;2023-04-25T00:18:04;3.42;;;1.98;;
22429;SDS011;11382;48.086;11.632;2023-04-25T00:20:33;2.47;;;2.03;;
22429;SDS011;11382;48.086;11.632;2023-04-25T00:23:02;5.07;;;2.22;;
22429;SDS011;11382;48.086;11.632;2023-04-25T00:25:31;4.40;;;2.67;;
22429;SDS011;11382;48.086;11.632;2023-04-25T00:27:59;3.42;;;2.63;;
22429;SDS011;11382;48.086;11.632;2023-04-25T00:30:27;2.90;;;2.60;;
22429;SDS011;11382;48.086;11.632;2023-04-25T00:32:55;4.40;;;1.95;;
22429;SDS011;11382;48.086;11.632;2023-04-25T00:35:23;2.92;;;2.05;;
22429;SDS011;11382;48.086;11.632;2023-04-25T00:37:51;2.33;;;1.80;;
22429;SDS011;11382;48.086;11.632;2023-04-25T00:40:18;3.60;;;1.77;;
22429;SDS011;11382;48.086;11.632;2023-04-25T00:42:48;3.20;;;2.17;;
22429;SDS011;11382;48.086;11.632;2023-04-25T00:45:18;3.13;;;1.90;;
22429;SDS011;11382;48.086;11.632;2023-04-25T00:47:47;3.08;;;1.88;;
22429;SDS011;11382;48.086;11.632;2023-04-25T00:50:15;2.72;;;2.00;;
22429;SDS011;11382;48.086;11.632;2023-04-25T00:52:43;2.38;;;2.00;;
22429;SDS011;11382;48.086;11.632;2023-04-25T00:55:12;2.17;;;1.42;;
22429;SDS011;11382;48.086;11.632;2023-04-25T00:57:42;1.77;;;1.50;;
22429;SDS011;11382;48.086;11.632;2023-04-25T01:00:12;3.80;;;1.88;;
22429;SDS011;11382;48.086;11.632;2023-04-25T01:02:40;3.35;;;2.15;;
22429;SDS011;11382;48.086;11.632;2023-04-25T01:05:09;3.03;;;2.13;;
22429;SDS011;11382;48.086;11.632;2023-04-25T01:07:38;3.67;;;1.70;;
22429;SDS011;11382;48.086;11.632;2023-04-25T01:10:07;2.35;;;1.83;;
22429;SDS011;11382;48.086;11.632;2023-04-25T01:12:36;2.60;;;1.80;;
22429;SDS011;11382;48.086;11.632;2023-04-25T01:15:05;3.05;;;1.90;;
22429;SDS011;11382;48.086;11.632;2023-04-25T01:17:35;2.03;;;1.65;;
22429;SDS011;11382;48.086;11.632;2023-04-25T01:20:03;2.95;;;2.00;;
22429;SDS011;11382;48.086;11.632;2023-04-25T01:22:34;2.22;;;1.80;;
22429;SDS011;11382;48.086;11.632;2023-04-25T01:25:02;2.85;;;1.77;;
22429;SDS011;11382;48.086;11.632;2023-04-25T01:27:32;3.72;;;1.98;;
22429;SDS011;11382;48.086;11.632;2023-04-25T01:30:00;2.13;;;1.70;;
22429;SDS011;11382;48.086;11.632;2023-04-25T01:32:28;3.65;;;1.55;;
22429;SDS011;11382;48.086;11.632;2023-04-25T01:35:04;2.53;;;1.83;;
22429;SDS011;11382;48.086;11.632;2023-04-25T01:37:37;2.30;;;2.00;;
22429;SDS011;11382;48.086;11.632;2023-04-25T01:40:05;4.75;;;2.08;;
22429;SDS011;11382;48.086;11.632;2023-04-25T01:42:35;2.45;;;1.75;;
22429;SDS011;11382;48.086;11.632;2023-04-25T01:45:05;3.55;;;1.70;;
22429;SDS011;11382;48.086;11.632;2023-04-25T01:47:34;3.08;;;1.85;;
22429;SDS011;11382;48.086;11.632;2023-04-25T01:50:02;2.70;;;2.03;;
22429;SDS011;11382;48.086;11.632;2023-04-25T01:52:31;2.20;;;1.67;;
22429;SDS011;11382;48.086;11.632;2023-04-25T01:55:02;3.38;;;2.47;;
22429;SDS011;11382;48.086;11.632;2023-04-25T01:57:32;3.33;;;1.83;;
22429;SDS011;11382;48.086;11.632;2023-04-25T02:00:01;2.58;;;1.88;;
22429;SDS011;11382;48.086;11.632;2023-04-25T02:02:40;2.28;;;1.75;;
22429;SDS011;11382;48.086;11.632;2023-04-25T02:05:21;3.33;;;2.10;;
22429;SDS011;11382;48.086;11.632;2023-04-25T02:07:49;1.92;;;1.73;;
22429;SDS011;11382;48.086;11.632;2023-04-25T02:10:18;3.67;;;2.40;;
22429;SDS011;11382;48.086;11.632;2023-04-25T02:12:59;3.07;;;1.90;;
22429;SDS011;11382;48.086;11.632;2023-04-25T02:15:42;4.43;;;2.10;;
22429;SDS011;11382;48.086;11.632;2023-04-25T02:18:15;3.17;;;1.70;;
22429;SDS011;11382;48.086;11.632;2023-04-25T02:20:43;3.03;;;1.95;;
22429;SDS011;11382;48.086;11.632;2023-04-25T02:23:12;2.83;;;2.05;;
22429;SDS011;11382;48.086;11.632;2023-04-25T02:25:42;3.58;;;1.88;;
22429;SDS011;11382;48.086;11.632;2023-04-25T02:28:10;3.20;;;2.00;;
22429;SDS011;11382;48.086;11.632;2023-04-25T02:30:38;4.32;;;1.88;;
22429;SDS011;11382;48.086;11.632;2023-04-25T02:33:06;3.78;;;2.10;;
22429;SDS011;11382;48.086;11.632;2023-04-25T02:35:35;3.28;;;1.90;;
22429;SDS011;11382;48.086;11.632;2023-04-25T02:38:02;3.30;;;1.77;;
22429;SDS011;11382;48.086;11.632;2023-04-25T02:40:32;2.92;;;2.28;;
22429;SDS011;11382;48.086;11.632;2023-04-25T02:43:01;4.72;;;1.92;;
22429;SDS011;11382;48.086;11.632;2023-04-25T02:45:29;3.58;;;2.03;;
22429;SDS011;11382;48.086;11.632;2023-04-25T02:47:57;4.82;;;1.90;;
22429;SDS011;11382;48.086;11.632;2023-04-25T02:50:25;4.10;;;2.28;;
22429;SDS011;11382;48.086;11.632;2023-04-25T02:52:53;3.88;;;1.88;;
22429;SDS011;11382;48.086;11.632;2023-04-25T02:55:25;4.45;;;2.40;;
22429;SDS011;11382;48.086;11.632;2023-04-25T02:57:54;3.72;;;2.28;;
22429;SDS011;11382;48.086;11.632;2023-04-25T03:00:38;2.85;;;2.33;;
22429;SDS011;11382;48.086;11.632;2023-04-25T03:03:06;2.78;;;1.95;;
22429;SDS011;11382;48.086;11.632;2023-04-25T03:05:34;2.83;;;2.00;;
22429;SDS011;11382;48.086;11.632;2023-04-25T03:08:02;3.03;;;2.05;;
22429;SDS011;11382;48.086;11.632;2023-04-25T03:10:31;5.68;;;2.13;;
22429;SDS011;11382;48.086;11.632;2023-04-25T03:15:34;2.88;;;1.95;;
22429;SDS011;11382;48.086;11.632;2023-04-25T03:18:04;3.50;;;1.70;;
22429;SDS011;11382;48.086;11.632;2023-04-25T03:20:32;3.78;;;2.28;;
22429;SDS011;11382;48.086;11.632;2023-04-25T03:23:02;4.10;;;2.50;;
22429;SDS011;11382;48.086;11.632;2023-04-25T03:25:30;2.80;;;1.98;;
22429;SDS011;11382;48.086;11.632;2023-04-25T03:27:57;2.35;;;1.98;;
22429;SDS011;11382;48.086;11.632;2023-04-25T03:30:26;2.38;;;1.80;;
22429;SDS011;11382;48.086;11.632;2023-04-25T03:32:53;3.47;;;1.90;;
22429;SDS011;11382;48.086;11.632;2023-04-25T03:35:23;3.05;;;1.65;;
22429;SDS011;11382;48.086;11.632;2023-04-25T03:37:51;3.53;;;2.00;;
22429;SDS011;11382;48.086;11.632;2023-04-25T03:40:25;2.70;;;1.90;;
22429;SDS011;11382;48.086;11.632;2023-04-25T03:43:16;4.00;;;2.25;;
22429;SDS011;11382;48.086;11.632;2023-04-25T03:45:56;3.53;;;2.40;;
22429;SDS011;11382;48.086;11.632;2023-04-25T03:48:24;3.80;;;2.10;;
22429;SDS011;11382;48.086;11.632;2023-04-25T03:50:54;6.78;;;2.00;;
22429;SDS011;11382;48.086;11.632;2023-04-25T03:53:23;4.28;;;2.17;;
22429;SDS011;11382;48.086;11.632;2023-04-25T03:56:23;2.80;;;1.90;;
22429;SDS011;11382;48.086;11.632;2023-04-25T03:58:59;4.32;;;1.75;;
22429;SDS011;11382;48.086;11.632;2023-04-25T04:01:29;4.25;;;2.10;;
22429;SDS011;11382;48.086;11.632;2023-04-25T04:03:57;4.03;;;2.28;;
22429;SDS011;11382;48.086;11.632;2023-04-25T04:06:27;5.03;;;2.10;;
22429;SDS011;11382;48.086;11.632;2023-04-25T04:09:03;3.13;;;1.85;;
22429;SDS011;11382;48.086;11.632;2023-04-25T04:11:35;4.97;;;1.73;;
22429;SDS011;11382;48.086;11.632;2023-04-25T04:14:04;5.45;;;2.10;;
22429;SDS011;11382;48.086;11.632;2023-04-25T04:16:33;4.97;;;1.90;;
22429;SDS011;11382;48.086;11.632;2023-04-25T04:19:01;4.07;;;1.90;;
22429;SDS011;11382;48.086;11.632;2023-04-25T04:21:31;4.13;;;1.83;;
22429;SDS011;11382;48.086;11.632;2023-04-25T04:24:00;2.95;;;1.70;;
22429;SDS011;11382;48.086;11.632;2023-04-25T04:26:32;4.82;;;1.75;;
22429;SDS011;11382;48.086;11.632;2023-04-25T04:29:21;1.73;;;1.50;;
22429;SDS011;11382;48.086;11.632;2023-04-25T04:32:03;4.93;;;1.80;;
22429;SDS011;11382;48.086;11.632;2023-04-25T04:34:32;3.28;;;2.00;;
22429;SDS011;11382;48.086;11.632;2023-04-25T04:37:03;2.22;;;1.67;;
22429;SDS011;11382;48.086;11.632;2023-04-25T04:39:31;3.45;;;1.35;;
22429;SDS011;11382;48.086;11.632;2023-04-25T04:42:05;3.38;;;1.90;;
22429;SDS011;11382;48.086;11.632;2023-04-25T04:47:50;2.45;;;1.67;;
22429;SDS011;11382;48.086;11.632;2023-04-25T04:50:34;4.22;;;1.75;;
22429;SDS011;11382;48.086;11.632;2023-04-25T04:53:25;4.60;;;1.80;;
22429;SDS011;11382;48.086;11.632;2023-04-25T04:56:29;3.22;;;1.88;;
22429;SDS011;11382;48.086;11.632;2023-04-25T04:59:16;3.05;;;1.70;;
22429;SDS011;11382;48.086;11.632;2023-04-25T05:02:16;4.00;;;1.80;;
22429;SDS011;11382;48.086;11.632;2023-04-25T05:04:56;3.28;;;2.15;;
22429;SDS011;11382;48.086;11.632;2023-04-25T05:08:03;2.28;;;1.90;;
22429;SDS011;11382;48.086;11.632;2023-04-25T05:11:02;4.82;;;2.33;;
22429;SDS011;11382;48.086;11.632;2023-04-25T05:13:36;2.92;;;1.90;;
22429;SDS011;11382;48.086;11.632;2023-04-25T05:16:17;2.75;;;2.10;;
22429;SDS011;11382;48.086;11.632;2023-04-25T05:19:10;2.40;;;1.75;;
22429;SDS011;11382;48.086;11.632;2023-04-25T05:22:01;3.20;;;1.95;;
22429;SDS011;11382;48.086;11.632;2023-04-25T05:24:36;3.28;;;2.00;;
22429;SDS011;11382;48.086;11.632;2023-04-25T05:27:28;3.60;;;1.95;;
22429;SDS011;11382;48.086;11.632;2023-04-25T05:32:57;2.45;;;1.83;;
22429;SDS011;11382;48.086;11.632;2023-04-25T05:35:26;3.53;;;1.95;;
22429;SDS011;11382;48.086;11.632;2023-04-25T05:37:54;6.78;;;2.60;;
22429;SDS011;11382;48.086;11.632;2023-04-25T05:40:34;3.50;;;2.00;;
22429;SDS011;11382;48.086;11.632;2023-04-25T05:43:16;6.28;;;2.20;;
22429;SDS011;11382;48.086;11.632;2023-04-25T05:45:55;3.35;;;2.15;;
22429;SDS011;11382;48.086;11.632;2023-04-25T05:48:29;4.45;;;1.98;;
22429;SDS011;11382;48.086;11.632;2023-04-25T05:51:03;4.72;;;2.05;;
22429;SDS011;11382;48.086;11.632;2023-04-25T05:53:50;2.88;;;2.15;;
22429;SDS011;11382;48.086;11.632;2023-04-25T05:56:19;3.05;;;1.92;;
22429;SDS011;11382;48.086;11.632;2023-04-25T05:58:52;5.68;;;2.40;;
22429;SDS011;11382;48.086;11.632;2023-04-25T06:01:21;2.65;;;1.95;;
22429;SDS011;11382;48.086;11.632;2023-04-25T06:03:49;3.75;;;1.80;;
22429;SDS011;11382;48.086;11.632;2023-04-25T06:06:19;3.78;;;1.95;;
22429;SDS011;11382;48.086;11.632;2023-04-25T06:08:47;4.15;;;2.00;;
22429;SDS011;11382;48.086;11.632;2023-04-25T06:11:15;3.63;;;2.20;;
22429;SDS011;11382;48.086;11.632;2023-04-25T06:13:43;4.43;;;2.40;;
22429;SDS011;11382;48.086;11.632;2023-04-25T06:16:13;3.67;;;2.00;;
22429;SDS011;11382;48.086;11.632;2023-04-25T06:18:41;3.90;;;2.53;;
22429;SDS011;11382;48.086;11.632;2023-04-25T06:21:09;3.92;;;2.38;;
22429;SDS011;11382;48.086;11.632;2023-04-25T06:23:36;2.72;;;2.13;;
22429;SDS011;11382;48.086;11.632;2023-04-25T06:26:10;2.92;;;2.38;;
22429;SDS011;11382;48.086;11.632;2023-04-25T06:31:13;3.40;;;2.13;;
22429;SDS011;11382;48.086;11.632;2023-04-25T06:33:43;2.13;;;1.90;;
22429;SDS011;11382;48.086;11.632;2023-04-25T06:36:11;2.88;;;2.33;;
22429;SDS011;11382;48.086;11.632;2023-04-25T06:38:40;4.45;;;2.38;;
22429;SDS011;11382;48.086;11.632;2023-04-25T06:41:07;2.88;;;2.03;;
22429;SDS011;11382;48.086;11.632;2023-04-25T06:43:36;4.50;;;2.33;;
22429;SDS011;11382;48.086;11.632;2023-04-25T06:46:03;4.78;;;2.50;;
22429;SDS011;11382;48.086;11.632;2023-04-25T06:48:40;5.50;;;2.80;;
22429;SDS011;11382;48.086;11.632;2023-04-25T06:51:08;4.13;;;2.33;;
22429;SDS011;11382;48.086;11.632;2023-04-25T06:53:39;4.15;;;2.08;;
22429;SDS011;11382;48.086;11.632;2023-04-25T06:56:11;4.50;;;2.30;;
22429;SDS011;11382;48.086;11.632;2023-04-25T06:58:47;3.15;;;2.30;;
22429;SDS011;11382;48.086;11.632;2023-04-25T07:01:23;5.10;;;2.10;;
22429;SDS011;11382;48.086;11.632;2023-04-25T07:03:53;3.90;;;2.60;;
22429;SDS011;11382;48.086;11.632;2023-04-25T07:06:22;3.33;;;1.98;;
22429;SDS011;11382;48.086;11.632;2023-04-25T07:08:54;3.25;;;2.17;;
22429;SDS011;11382;48.086;11.632;2023-04-25T07:11:22;4.00;;;2.45;;
22429;SDS011;11382;48.086;11.632;2023-04-25T07:13:51;3.67;;;2.20;;
22429;SDS011;11382;48.086;11.632;2023-04-25T07:16:19;3.85;;;2.55;;
22429;SDS011;11382;48.086;11.632;2023-04-25T07:18:47;5.65;;;2.38;;
22429;SDS011;11382;48.086;11.632;2023-04-25T07:21:16;3.38;;;2.20;;
22429;SDS011;11382;48.086;11.632;2023-04-25T07:23:45;3.35;;;2.00;;
22429;SDS011;11382;48.086;11.632;2023-04-25T07:26:17;4.20;;;2.17;;
22429;SDS011;11382;48.086;11.632;2023-04-25T07:29:15;4.22;;;2.30;;
22429;SDS011;11382;48.086;11.632;2023-04-25T07:31:44;4.40;;;2.20;;
22429;SDS011;11382;48.086;11.632;2023-04-25T07:34:12;3.40;;;2.20;;
22429;SDS011;11382;48.086;11.632;2023-04-25T07:36:41;8.00;;;2.30;;
22429;SDS011;11382;48.086;11.632;2023-04-25T07:39:09;4.13;;;1.98;;
22429;SDS011;11382;48.086;11.632;2023-04-25T07:41:38;4.38;;;2.28;;
22429;SDS011;11382;48.086;11.632;2023-04-25T07:44:09;3.03;;;2.10;;
22429;SDS011;11382;48.086;11.632;2023-04-25T07:46:37;4.43;;;2.42;;
22429;SDS011;11382;48.086;11.632;2023-04-25T07:49:05;4.55;;;2.40;;
22429;SDS011;11382;48.086;11.632;2023-04-25T07:51:34;4.18;;;2.00;;
22429;SDS011;11382;48.086;11.632;2023-04-25T07:54:09;3.55;;;2.10;;
22429;SDS011;11382;48.086;11.632;2023-04-25T07:56:42;5.47;;;2.10;;
22429;SDS011;11382;48.086;11.632;2023-04-25T07:59:19;3.30;;;1.92;;
22429;SDS011;11382;48.086;11.632;2023-04-25T08:01:48;3.42;;;2.35;;
22429;SDS011;11382;48.086;11.632;2023-04-25T08:04:18;3.75;;;2.17;;
22429;SDS011;11382;48.086;11.632;2023-04-25T08:06:53;3.50;;;1.80;;
22429;SDS011;11382;48.086;11.632;2023-04-25T08:09:27;6.35;;;2.10;;
22429;SDS011;11382;48.086;11.632;2023-04-25T08:11:56;2.95;;;2.05;;
22429;SDS011;11382;48.086;11.632;2023-04-25T08:14:29;3.72;;;2.20;;
22429;SDS011;11382;48.086;11.632;2023-04-25T08:17:03;3.72;;;2.00;;
22429;SDS011;11382;48.086;11.632;2023-04-25T08:19:37;2.83;;;1.88;;
22429;SDS011;11382;48.086;11.632;2023-04-25T08:22:08;4.72;;;2.20;;
22429;SDS011;11382;48.086;11.632;2023-04-25T08:24:48;3.47;;;1.55;;
22429;SDS011;11382;48.086;11.632;2023-04-25T08:27:17;3.17;;;2.08;;
22429;SDS011;11382;48.086;11.632;2023-04-25T08:29:47;3.03;;;1.58;;
22429;SDS011;11382;48.086;11.632;2023-04-25T08:32:16;3.90;;;1.90;;
22429;SDS011;11382;48.086;11.632;2023-04-25T08:35:01;3.65;;;1.85;;
22429;SDS011;11382;48.086;11.632;2023-04-25T08:37:29;2.03;;;1.83;;
22429;SDS011;11382;48.086;11.632;2023-04-25T08:40:03;2.67;;;1.70;;
22429;SDS011;11382;48.086;11.632;2023-04-25T08:42:53;3.50;;;2.03;;
22429;SDS011;11382;48.086;11.632;2023-04-25T08:45:22;2.30;;;1.80;;
22429;SDS011;11382;48.086;11.632;2023-04-25T08:47:51;3.20;;;2.13;;
22429;SDS011;11382;48.086;11.632;2023-04-25T08:50:23;4.80;;;2.13;;
22429;SDS011;11382;48.086;11.632;2023-04-25T08:52:53;3.28;;;2.10;;
22429;SDS011;11382;48.086;11.632;2023-04-25T08:55:27;2.63;;;1.65;;
22429;SDS011;11382;48.086;11.632;2023-04-25T08:57:58;4.35;;;1.90;;
22429;SDS011;11382;48.086;11.632;2023-04-25T09:00:28;3.10;;;2.10;;
22429;SDS011;11382;48.086;11.632;2023-04-25T09:02:57;2.90;;;2.08;;
22429;SDS011;11382;48.086;11.632;2023-04-25T09:05:31;4.32;;;2.35;;
22429;SDS011;11382;48.086;11.632;2023-04-25T09:08:00;7.07;;;2.30;;
22429;SDS011;11382;48.086;11.632;2023-04-25T09:10:30;2.85;;;1.98;;
22429;SDS011;11382;48.086;11.632;2023-04-25T09:13:01;2.55;;;1.83;;
22429;SDS011;11382;48.086;11.632;2023-04-25T09:15:46;3.95;;;1.70;;
22429;SDS011;11382;48.086;11.632;2023-04-25T09:18:32;2.25;;;1.58;;
22429;SDS011;11382;48.086;11.632;2023-04-25T09:21:04;2.35;;;1.77;;
22429;SDS011;11382;48.086;11.632;2023-04-25T09:23:39;2.00;;;1.27;;
22429;SDS011;11382;48.086;11.632;2023-04-25T09:26:11;1.95;;;1.40;;
22429;SDS011;11382;48.086;11.632;2023-04-25T09:28:43;2.88;;;1.50;;
22429;SDS011;11382;48.086;11.632;2023-04-25T09:31:20;2.40;;;1.80;;
22429;SDS011;11382;48.086;11.632;2023-04-25T09:33:52;2.95;;;1.60;;
22429;SDS011;11382;48.086;11.632;2023-04-25T09:36:29;2.15;;;1.50;;
22429;SDS011;11382;48.086;11.632;2023-04-25T09:39:03;2.85;;;1.63;;
22429;SDS011;11382;48.086;11.632;2023-04-25T09:41:47;1.77;;;1.60;;
22429;SDS011;11382;48.086;11.632;2023-04-25T09:44:22;3.00;;;2.05;;
22429;SDS011;11382;48.086;11.632;2023-04-25T09:46:52;5.30;;;1.70;;
22429;SDS011;11382;48.086;11.632;2023-04-25T09:49:24;2.38;;;1.45;;
22429;SDS011;11382;48.086;11.632;2023-04-25T09:51:59;2.72;;;1.65;;
22429;SDS011;11382;48.086;11.632;2023-04-25T09:54:39;3.03;;;1.52;;
22429;SDS011;11382;48.086;11.632;2023-04-25T09:57:13;2.92;;;1.60;;
22429;SDS011;11382;48.086;11.632;2023-04-25T09:59:44;3.50;;;1.80;;
22429;SDS011;11382;48.086;11.632;2023-04-25T10:02:14;2.08;;;1.38;;
22429;SDS011;11382;48.086;11.632;2023-04-25T10:04:47;2.60;;;1.67;;
22429;SDS011;11382;48.086;11.632;2023-04-25T10:07:22;1.75;;;1.40;;
22429;SDS011;11382;48.086;11.632;2023-04-25T10:09:55;1.75;;;1.65;;
22429;SDS011;11382;48.086;11.632;2023-04-25T10:12:28;3.05;;;1.60;;
22429;SDS011;11382;48.086;11.632;2023-04-25T10:14:57;2.22;;;1.73;;
22429;SDS011;11382;48.086;11.632;2023-04-25T10:17:26;2.65;;;1.30;;
22429;SDS011;11382;48.086;11.632;2023-04-25T10:19:55;1.30;;;1.17;;
22429;SDS011;11382;48.086;11.632;2023-04-25T10:22:26;2.17;;;1.60;;
22429;SDS011;11382;48.086;11.632;2023-04-25T10:24:58;2.65;;;1.40;;
22429;SDS011;11382;48.086;11.632;2023-04-25T10:27:28;3.00;;;1.60;;
22429;SDS011;11382;48.086;11.632;2023-04-25T10:30:00;1.92;;;1.60;;
22429;SDS011;11382;48.086;11.632;2023-04-25T10:35:09;4.00;;;1.40;;
22429;SDS011;11382;48.086;11.632;2023-04-25T10:37:38;2.08;;;1.80;;
22429;SDS011;11382;48.086;11.632;2023-04-25T10:40:23;2.95;;;1.35;;
22429;SDS011;11382;48.086;11.632;2023-04-25T10:42:53;1.90;;;1.38;;
22429;SDS011;11382;48.086;11.632;2023-04-25T10:45:22;3.40;;;1.58;;
22429;SDS011;11382;48.086;11.632;2023-04-25T10:47:50;4.80;;;1.67;;
22429;SDS011;11382;48.086;11.632;2023-04-25T10:50:18;2.83;;;1.48;;
22429;SDS011;11382;48.086;11.632;2023-04-25T10:52:46;3.80;;;1.30;;
22429;SDS011;11382;48.086;11.632;2023-04-25T10:55:14;2.20;;;1.40;;
22429;SDS011;11382;48.086;11.632;2023-04-25T10:57:42;2.80;;;1.60;;
22429;SDS011;11382;48.086;11.632;2023-04-25T11:00:15;2.58;;;1.05;;
22429;SDS011;11382;48.086;11.632;2023-04-25T11:02:45;2.75;;;1.25;;
22429;SDS011;11382;48.086;11.632;2023-04-25T11:05:20;1.20;;;1.10;;
22429;SDS011;11382;48.086;11.632;2023-04-25T11:07:51;2.38;;;1.10;;
22429;SDS011;11382;48.086;11.632;2023-04-25T11:10:43;2.03;;;1.30;;
22429;SDS011;11382;48.086;11.632;2023-04-25T11:13:12;3.78;;;1.75;;
22429;SDS011;11382;48.086;11.632;2023-04-25T11:15:42;5.07;;;1.80;;
22429;SDS011;11382;48.086;11.632;2023-04-25T11:18:09;3.60;;;2.08;;
22429;SDS011;11382;48.086;11.632;2023-04-25T11:20:37;3.08;;;1.95;;
22429;SDS011;11382;48.086;11.632;2023-04-25T11:23:05;3.25;;;1.30;;
22429;SDS011;11382;48.086;11.632;2023-04-25T11:25:33;2.97;;;1.50;;
22429;SDS011;11382;48.086;11.632;2023-04-25T11:28:04;1.48;;;1.30;;
22429;SDS011;11382;48.086;11.632;2023-04-25T11:30:32;3.83;;;1.30;;
22429;SDS011;11382;48.086;11.632;2023-04-25T11:33:01;2.17;;;1.45;;
22429;SDS011;11382;48.086;11.632;2023-04-25T11:35:30;1.92;;;1.55;;
22429;SDS011;11382;48.086;11.632;2023-04-25T11:37:59;1.50;;;1.40;;
22429;SDS011;11382;48.086;11.632;2023-04-25T11:40:29;2.03;;;1.52;;
22429;SDS011;11382;48.086;11.632;2023-04-25T11:42:59;1.73;;;1.63;;
22429;SDS011;11382;48.086;11.632;2023-04-25T11:45:28;3.10;;;1.50;;
22429;SDS011;11382;48.086;11.632;2023-04-25T11:47:56;1.80;;;1.65;;
22429;SDS011;11382;48.086;11.632;2023-04-25T11:50:26;2.17;;;1.50;;
22429;SDS011;11382;48.086;11.632;2023-04-25T11:52:56;2.70;;;1.40;;
22429;SDS011;11382;48.086;11.632;2023-04-25T11:55:24;2.60;;;1.65;;
22429;SDS011;11382;48.086;11.632;2023-04-25T11:57:52;1.95;;;1.55;;
22429;SDS011;11382;48.086;11.632;2023-04-25T12:00:21;1.83;;;1.60;;
22429;SDS011;11382;48.086;11.632;2023-04-25T12:02:51;1.58;;;1.27;;
22429;SDS011;11382;48.086;11.632;2023-04-25T12:05:20;2.85;;;1.73;;
22429;SDS011;11382;48.086;11.632;2023-04-25T12:08:10;1.80;;;1.45;;
22429;SDS011;11382;48.086;11.632;2023-04-25T12:10:39;2.25;;;1.35;;
22429;SDS011;11382;48.086;11.632;2023-04-25T12:13:19;2.58;;;1.35;;
22429;SDS011;11382;48.086;11.632;2023-04-25T12:15:48;2.83;;;1.50;;
22429;SDS011;11382;48.086;11.632;2023-04-25T12:18:18;1.80;;;1.38;;
22429;SDS011;11382;48.086;11.632;2023-04-25T12:20:47;1.38;;;1.20;;
22429;SDS011;11382;48.086;11.632;2023-04-25T12:35:33;3.63;;;1.75;;
22429;SDS011;11382;48.086;11.632;2023-04-25T12:38:01;1.40;;;1.30;;
22429;SDS011;11382;48.086;11.632;2023-04-25T12:40:29;1.70;;;1.35;;
22429;SDS011;11382;48.086;11.632;2023-04-25T12:42:57;2.58;;;1.40;;
22429;SDS011;11382;48.086;11.632;2023-04-25T12:45:25;3.08;;;1.38;;
22429;SDS011;11382;48.086;11.632;2023-04-25T12:47:53;1.40;;;0.90;;
22429;SDS011;11382;48.086;11.632;2023-04-25T12:50:20;0.93;;;0.80;;
22429;SDS011;11382;48.086;11.632;2023-04-25T12:52:50;1.35;;;1.05;;
22429;SDS011;11382;48.086;11.632;2023-04-25T12:55:18;2.88;;;1.48;;
22429;SDS011;11382;48.086;11.632;2023-04-25T12:57:46;1.75;;;0.98;;
22429;SDS011;11382;48.086;11.632;2023-04-25T13:00:14;1.77;;;1.05;;
22429;SDS011;11382;48.086;11.632;2023-04-25T13:02:44;2.25;;;1.10;;
22429;SDS011;11382;48.086;11.632;2023-04-25T13:05:13;1.25;;;1.10;;
22429;SDS011;11382;48.086;11.632;2023-04-25T13:07:41;1.58;;;1.05;;
22429;SDS011;11382;48.086;11.632;2023-04-25T13:10:10;1.00;;;0.88;;
22429;SDS011;11382;48.086;11.632;2023-04-25T13:12:38;1.10;;;1.00;;
22429;SDS011;11382;48.086;11.632;2023-04-25T13:15:07;0.80;;;0.80;;
22429;SDS011;11382;48.086;11.632;2023-04-25T13:17:37;1.77;;;0.80;;
22429;SDS011;11382;48.086;11.632;2023-04-25T13:20:05;1.23;;;0.88;;
22429;SDS011;11382;48.086;11.632;2023-04-25T13:22:35;0.80;;;0.70;;
22429;SDS011;11382;48.086;11.632;2023-04-25T13:25:05;1.52;;;0.70;;
22429;SDS011;11382;48.086;11.632;2023-04-25T13:27:35;1.88;;;0.70;;
22429;SDS011;11382;48.086;11.632;2023-04-25T13:30:06;1.05;;;0.95;;
22429;SDS011;11382;48.086;11.632;2023-04-25T13:32:35;2.10;;;1.00;;
22429;SDS011;11382;48.086;11.632;2023-04-25T13:35:05;1.30;;;0.93;;
22429;SDS011;11382;48.086;11.632;2023-04-25T13:37:36;1.13;;;0.77;;
22429;SDS011;11382;48.086;11.632;2023-04-25T13:40:05;1.38;;;0.82;;
22429;SDS011;11382;48.086;11.632;2023-04-25T13:42:38;1.38;;;1.10;;
22429;SDS011;11382;48.086;11.632;2023-04-25T13:45:06;2.90;;;1.10;;
22429;SDS011;11382;48.086;11.632;2023-04-25T13:47:35;1.40;;;1.10;;
22429;SDS011;11382;48.086;11.632;2023-04-25T13:50:03;1.98;;;1.05;;
22429;SDS011;11382;48.086;11.632;2023-04-25T13:52:33;1.65;;;1.13;;
22429;SDS011;11382;48.086;11.632;2023-04-25T13:55:01;1.27;;;1.10;;
22429;SDS011;11382;48.086;11.632;2023-04-25T13:57:30;1.75;;;1.10;;
22429;SDS011;11382;48.086;11.632;2023-04-25T13:59:59;0.90;;;0.70;;
22429;SDS011;11382;48.086;11.632;2023-04-25T14:02:31;2.85;;;0.95;;
22429;SDS011;11382;48.086;11.632;2023-04-25T14:04:59;1.73;;;1.15;;
22429;SDS011;11382;48.086;11.632;2023-04-25T14:07:27;1.40;;;0.80;;
22429;SDS011;11382;48.086;11.632;2023-04-25T14:09:56;0.85;;;0.65;;
22429;SDS011;11382;48.086;11.632;2023-04-25T14:12:24;1.40;;;0.85;;
22429;SDS011;11382;48.086;11.632;2023-04-25T14:14:52;0.63;;;0.60;;
22429;SDS011;11382;48.086;11.632;2023-04-25T14:17:22;0.95;;;0.90;;
22429;SDS011;11382;48.086;11.632;2023-04-25T14:19:50;0.80;;;0.63;;
22429;SDS011;11382;48.086;11.632;2023-04-25T14:22:18;1.42;;;0.60;;
22429;SDS011;11382;48.086;11.632;2023-04-25T14:24:46;1.13;;;0.70;;
22429;SDS011;11382;48.086;11.632;2023-04-25T14:27:14;1.02;;;0.68;;
22429;SDS011;11382;48.086;11.632;2023-04-25T14:29:42;2.65;;;0.60;;
22429;SDS011;11382;48.086;11.632;2023-04-25T14:32:10;0.73;;;0.70;;
22429;SDS011;11382;48.086;11.632;2023-04-25T14:34:39;1.38;;;0.40;;
22429;SDS011;11382;48.086;11.632;2023-04-25T14:37:07;0.43;;;0.43;;
22429;SDS011;11382;48.086;11.632;2023-04-25T14:39:35;1.38;;;0.60;;
22429;SDS011;11382;48.086;11.632;2023-04-25T14:42:04;0.82;;;0.60;;
22429;SDS011;11382;48.086;11.632;2023-04-25T14:44:32;0.50;;;0.50;;
22429;SDS011;11382;48.086;11.632;2023-04-25T14:47:00;2.88;;;0.85;;
22429;SDS011;11382;48.086;11.632;2023-04-25T14:49:28;1.85;;;0.93;;
22429;SDS011;11382;48.086;11.632;2023-04-25T14:51:57;0.88;;;0.85;;
22429;SDS011;11382;48.086;11.632;2023-04-25T14:54:26;0.85;;;0.85;;
22429;SDS011;11382;48.086;11.632;2023-04-25T14:56:54;1.10;;;0.90;;
22429;SDS011;11382;48.086;11.632;2023-04-25T14:59:22;1.90;;;1.13;;
22429;SDS011;11382;48.086;11.632;2023-04-25T15:01:50;2.63;;;1.15;;
22429;SDS011;11382;48.086;11.632;2023-04-25T15:04:19;3.95;;;1.30;;
22429;SDS011;11382;48.086;11.632;2023-04-25T15:06:47;1.95;;;1.00;;
22429;SDS011;11382;48.086;11.632;2023-04-25T15:09:16;1.35;;;1.25;;
22429;SDS011;11382;48.086;11.632;2023-04-25T15:11:44;1.00;;;0.90;;
22429;SDS011;11382;48.086;11.632;2023-04-25T15:14:12;1.35;;;0.80;;
22429;SDS011;11382;48.086;11.632;2023-04-25T15:16:40;1.17;;;1.08;;
22429;SDS011;11382;48.086;11.632;2023-04-25T15:19:08;2.42;;;1.00;;
22429;SDS011;11382;48.086;11.632;2023-04-25T15:21:36;0.93;;;0.80;;
22429;SDS011;11382;48.086;11.632;2023-04-25T15:24:05;2.42;;;0.65;;